Time;durP1;ratioP1;P1;durP2;ratioP2;P2;SDS_P1;SDS_P2;PMS_P1;PMS_P2;Temp;Humidity;BMP_temperature;BMP_pressure;BME280_temperature;BME280_humidity;BME280_pressure;Samples;Min_cycle;Max_cycle;Signal;HPM_P1;HPM_P2
2023/12/09 00:04:46;;;;;;;117.80;34.10;;;;;;;5.94;100.00;101056.00;10480124;28;20987;-59
2023/12/09 00:10:09;;;;;;;116.35;32.58;;;;;;;5.95;100.00;101052.59;10479501;28;20439;-60
2023/12/09 00:15:31;;;;;;;119.40;32.22;;;;;;;5.99;100.00;101054.25;10473400;28;20042;-60
2023/12/09 00:20:52;;;;;;;123.00;34.40;;;;;;;6.05;100.00;101043.94;10473921;28;20052;-61
2023/12/09 00:26:15;;;;;;;118.65;34.63;;;;;;;6.09;100.00;101053.34;10475110;28;20090;-61
2023/12/09 00:31:36;;;;;;;115.50;33.00;;;;;;;6.13;100.00;101039.59;10485136;28;20087;-60
2023/12/09 00:36:58;;;;;;;106.03;32.53;;;;;;;6.16;100.00;101041.28;10474421;28;20048;-60
2023/12/09 00:42:19;;;;;;;113.43;32.28;;;;;;;6.24;100.00;101044.63;10470176;28;20138;-60
2023/12/09 00:47:41;;;;;;;108.35;32.60;;;;;;;6.27;100.00;101039.47;10459966;28;20059;-59
2023/12/09 00:53:03;;;;;;;109.28;31.52;;;;;;;6.26;100.00;101028.34;10472797;28;20052;-60
2023/12/09 00:58:24;;;;;;;114.85;32.13;;;;;;;6.29;100.00;101038.59;10470894;28;20500;-60
2023/12/09 01:03:46;;;;;;;107.95;32.92;;;;;;;6.34;100.00;101047.09;10476164;28;20049;-60
2023/12/09 01:09:08;;;;;;;115.20;33.38;;;;;;;6.40;100.00;101052.19;10471672;28;20060;-61
2023/12/09 01:14:29;;;;;;;116.93;32.53;;;;;;;6.43;100.00;101047.00;10467138;28;20033;-60
2023/12/09 01:19:51;;;;;;;113.15;31.58;;;;;;;6.45;100.00;101050.41;10469786;28;20175;-60
2023/12/09 01:25:13;;;;;;;90.68;29.98;;;;;;;6.46;100.00;101053.84;10466705;28;20458;-60
2023/12/09 01:30:34;;;;;;;140.45;31.98;;;;;;;6.47;100.00;101048.69;10476194;28;20056;-61
2023/12/09 01:35:56;;;;;;;127.53;30.98;;;;;;;6.48;100.00;101055.56;10466912;28;20040;-60
2023/12/09 01:41:18;;;;;;;104.60;31.02;;;;;;;6.53;100.00;101048.63;10473468;28;20509;-60
2023/12/09 01:46:41;;;;;;;100.78;29.30;;;;;;;6.58;100.00;101051.16;10474636;28;20485;-60
2023/12/09 01:52:04;;;;;;;91.15;29.45;;;;;;;6.58;100.00;101046.88;10470738;28;20420;-61
2023/12/09 01:57:26;;;;;;;97.25;29.75;;;;;;;6.60;100.00;101039.13;10483437;28;20054;-61
2023/12/09 02:02:48;;;;;;;85.55;27.63;;;;;;;6.60;100.00;101034.84;10481966;28;20463;-60
2023/12/09 02:08:10;;;;;;;93.35;29.38;;;;;;;6.67;100.00;101030.47;10473432;28;20057;-58
2023/12/09 02:13:47;;;;;;;81.32;28.48;;;;;;;6.68;100.00;101027.91;10472171;28;20084;-60
2023/12/09 02:19:12;;;;;;;93.97;29.88;;;;;;;6.70;100.00;101015.03;10475820;28;20057;-60
2023/12/09 02:24:34;;;;;;;98.35;32.35;;;;;;;6.74;100.00;101021.84;10477666;28;20485;-60
2023/12/09 02:30:13;;;;;;;87.38;28.88;;;;;;;6.77;100.00;101026.94;10476716;28;20041;-60
2023/12/09 02:35:40;;;;;;;100.80;30.40;;;;;;;6.81;100.00;101029.47;10475472;28;20461;-61
2023/12/09 02:41:02;;;;;;;95.03;32.08;;;;;;;6.83;100.00;101030.28;10473254;28;20385;-61
2023/12/09 02:46:24;;;;;;;101.63;31.13;;;;;;;6.84;100.00;101013.16;10464450;28;20091;-58
2023/12/09 02:51:45;;;;;;;113.20;32.10;;;;;;;6.87;100.00;101006.25;10488237;28;20045;-61
2023/12/09 02:57:07;;;;;;;96.13;30.83;;;;;;;6.90;100.00;101003.63;10479745;28;20532;-59
2023/12/09 03:02:29;;;;;;;85.45;31.98;;;;;;;6.92;100.00;100986.47;10475231;28;20048;-60
2023/12/09 03:07:50;;;;;;;107.53;33.83;;;;;;;6.94;100.00;100984.72;10481290;28;20080;-60
2023/12/09 03:13:12;;;;;;;110.43;34.42;;;;;;;6.99;100.00;100977.81;10474776;28;20044;-61
2023/12/09 03:18:34;;;;;;;119.10;34.50;;;;;;;6.99;100.00;100972.66;10479190;28;20059;-61
2023/12/09 03:23:56;;;;;;;102.40;33.95;;;;;;;6.98;100.00;100965.81;10496806;28;20163;-60
2023/12/09 03:29:18;;;;;;;103.70;32.25;;;;;;;7.00;100.00;100956.34;10479610;28;20400;-58
2023/12/09 03:34:43;;;;;;;97.10;34.88;;;;;;;7.04;100.00;100950.31;10473772;28;20044;-60
2023/12/09 03:40:05;;;;;;;102.78;35.25;;;;;;;7.05;100.00;100954.56;10473898;28;20045;-58
2023/12/09 03:45:27;;;;;;;97.32;34.10;;;;;;;7.08;100.00;100951.97;10474803;28;20493;-61
2023/12/09 03:50:48;;;;;;;80.20;32.83;;;;;;;7.09;100.00;100951.06;10474080;28;20048;-60
2023/12/09 03:56:13;;;;;;;91.72;33.17;;;;;;;7.11;100.00;100961.34;10475619;28;20041;-60
2023/12/09 04:01:35;;;;;;;123.05;34.10;;;;;;;7.10;100.00;100950.19;10472164;28;20048;-61
2023/12/09 04:06:57;;;;;;;100.22;33.42;;;;;;;7.11;100.00;100943.34;10472194;28;20056;-61
2023/12/09 04:12:18;;;;;;;99.05;32.80;;;;;;;7.12;100.00;100943.31;10476502;28;20066;-60
2023/12/09 04:17:40;;;;;;;116.57;32.97;;;;;;;7.16;100.00;100941.53;10476751;28;20048;-60
2023/12/09 04:23:04;;;;;;;108.45;31.95;;;;;;;7.16;100.00;100944.13;10475112;28;20044;-60
2023/12/09 04:28:25;;;;;;;96.13;33.08;;;;;;;7.18;100.00;100946.69;10475550;28;20057;-61
2023/12/09 04:33:47;;;;;;;102.72;33.58;;;;;;;7.18;100.00;100937.22;10475063;28;20409;-60
2023/12/09 04:39:09;;;;;;;138.00;33.00;;;;;;;7.19;100.00;100936.38;10473509;28;20048;-60
2023/12/09 04:44:31;;;;;;;89.95;33.17;;;;;;;7.22;100.00;100943.16;10469297;28;20105;-60
2023/12/09 04:49:52;;;;;;;91.43;33.33;;;;;;;7.22;100.00;100938.88;10472290;28;20070;-60
2023/12/09 04:55:14;;;;;;;103.82;32.22;;;;;;;7.24;100.00;100946.56;10472320;28;20044;-61
2023/12/09 05:00:36;;;;;;;103.68;33.40;;;;;;;7.25;100.00;100943.16;10474971;28;20056;-61
2023/12/09 05:05:59;;;;;;;90.53;30.92;;;;;;;7.27;100.00;100941.41;10470744;28;20125;-60
2023/12/09 05:11:20;;;;;;;87.93;31.60;;;;;;;7.29;100.00;100939.66;10477548;28;20055;-60
2023/12/09 05:16:42;;;;;;;76.82;30.67;;;;;;;7.29;100.00;100942.25;10471720;28;20486;-58
2023/12/09 05:22:04;;;;;;;87.57;30.45;;;;;;;7.31;100.00;100937.91;10461353;28;20098;-58
2023/12/09 05:27:25;;;;;;;78.47;30.00;;;;;;;7.30;100.00;100931.06;10471291;28;20357;-59
2023/12/09 05:32:47;;;;;;;82.03;29.83;;;;;;;7.31;100.00;100928.44;10468671;28;20049;-58
2023/12/09 05:38:09;;;;;;;71.35;29.48;;;;;;;7.34;100.00;100923.28;10472055;28;20051;-58
2023/12/09 05:43:30;;;;;;;78.78;29.55;;;;;;;7.36;100.00;100920.69;10474266;28;20044;-58
2023/12/09 05:48:52;;;;;;;80.72;29.30;;;;;;;7.37;100.00;100900.06;10471778;28;20068;-58
2023/12/09 05:54:14;;;;;;;81.82;29.00;;;;;;;7.38;100.00;100904.31;10479251;28;20037;-59
2023/12/09 05:59:35;;;;;;;85.85;28.88;;;;;;;7.38;100.00;100903.50;10475469;28;20072;-59
2023/12/09 06:04:57;;;;;;;72.18;27.15;;;;;;;7.37;100.00;100896.63;10480247;28;20044;-58
2023/12/09 06:10:19;;;;;;;68.22;26.98;;;;;;;7.39;100.00;100900.03;10476783;28;20541;-58
2023/12/09 06:15:40;;;;;;;69.38;26.67;;;;;;;7.39;100.00;100905.19;10474107;28;20045;-59
2023/12/09 06:21:02;;;;;;;70.07;27.30;;;;;;;7.40;100.00;100897.44;10478703;28;20692;-58
2023/12/09 06:26:24;;;;;;;64.30;25.63;;;;;;;7.41;100.00;100898.28;10474950;28;20064;-58
2023/12/09 06:31:45;;;;;;;58.15;24.05;;;;;;;7.43;100.00;100896.53;10479075;28;20409;-59
2023/12/09 06:37:07;;;;;;;68.68;25.33;;;;;;;7.43;100.00;100899.09;10476676;28;20054;-59
2023/12/09 06:42:29;;;;;;;64.32;22.42;;;;;;;7.45;100.00;100898.22;10480228;28;20417;-58
2023/12/09 06:47:53;;;;;;;54.90;22.23;;;;;;;7.45;100.00;100892.22;10478210;28;20049;-60
2023/12/09 06:53:15;;;;;;;58.92;21.75;;;;;;;7.47;100.00;100887.91;10474424;28;20067;-61
2023/12/09 06:58:37;;;;;;;55.75;20.80;;;;;;;7.46;100.00;100881.03;10478135;28;20535;-60
2023/12/09 07:03:59;;;;;;;56.90;20.85;;;;;;;7.46;100.00;100881.03;10475565;28;20517;-58
2023/12/09 07:09:21;;;;;;;54.10;18.88;;;;;;;7.46;100.00;100873.31;10484463;28;20072;-58
2023/12/09 07:14:42;;;;;;;45.20;18.17;;;;;;;7.46;100.00;100860.44;10499046;28;20653;-60
2023/12/09 07:20:06;;;;;;;58.17;17.55;;;;;;;7.48;100.00;100853.53;10474391;28;20095;-60
2023/12/09 07:25:28;;;;;;;45.10;16.55;;;;;;;7.52;100.00;100850.03;10488410;28;20068;-60
2023/12/09 07:30:49;;;;;;;38.05;16.90;;;;;;;7.52;100.00;100842.31;10473571;28;20059;-61
2023/12/09 07:36:11;;;;;;;49.88;17.50;;;;;;;7.51;100.00;100827.75;10471790;28;20037;-58
2023/12/09 07:41:34;;;;;;;53.03;17.60;;;;;;;7.50;100.00;100823.47;10471340;28;20084;-59
2023/12/09 07:46:56;;;;;;;42.78;17.30;;;;;;;7.52;100.00;100819.16;10474311;28;20052;-58
2023/12/09 07:52:18;;;;;;;51.88;18.42;;;;;;;7.53;100.00;100816.53;10477950;28;20041;-59
2023/12/09 07:57:40;;;;;;;50.50;18.83;;;;;;;7.55;100.00;100834.53;10476911;28;20126;-58
2023/12/09 08:03:04;;;;;;;56.88;19.92;;;;;;;7.56;100.00;100841.41;10472723;28;20059;-58
2023/12/09 08:08:27;;;;;;;52.83;21.10;;;;;;;7.58;100.00;100835.31;10474189;28;20042;-59
2023/12/09 08:13:48;;;;;;;41.53;21.10;;;;;;;7.60;100.00;100822.44;10472295;28;20136;-57
2023/12/09 08:19:10;;;;;;;59.08;20.27;;;;;;;7.63;100.00;100832.69;10474475;28;20049;-58
2023/12/09 08:24:32;;;;;;;51.92;20.42;;;;;;;7.65;100.00;100812.91;10472746;28;20398;-61
2023/12/09 08:29:53;;;;;;;47.17;18.83;;;;;;;7.67;100.00;100813.72;10466354;28;20053;-60
2023/12/09 08:35:15;;;;;;;46.63;17.73;;;;;;;7.69;100.00;100811.97;10472907;28;20474;-60
2023/12/09 08:40:37;;;;;;;50.83;17.40;;;;;;;7.69;100.00;100796.53;10472628;28;20053;-61
2023/12/09 08:45:58;;;;;;;39.33;16.63;;;;;;;7.70;100.00;100793.06;10468698;28;20405;-61
2023/12/09 08:51:20;;;;;;;38.55;15.77;;;;;;;7.74;100.00;100794.69;10470749;28;20052;-60
2023/12/09 08:56:42;;;;;;;40.50;14.55;;;;;;;7.79;100.00;100787.72;10461397;28;20120;-60
2023/12/09 09:02:03;;;;;;;37.72;12.00;;;;;;;7.82;100.00;100777.38;10464702;28;20061;-61
2023/12/09 09:07:25;;;;;;;31.67;10.73;;;;;;;7.81;100.00;100771.38;10471641;28;20416;-61
2023/12/09 09:12:47;;;;;;;27.08;8.45;;;;;;;7.81;100.00;100762.78;10459055;28;20057;-60
2023/12/09 09:18:08;;;;;;;27.90;8.32;;;;;;;7.83;100.00;100766.19;10470020;28;20060;-61
2023/12/09 09:23:30;;;;;;;33.72;8.00;;;;;;;7.80;100.00;100766.25;10476333;28;20048;-60
2023/12/09 09:28:52;;;;;;;20.33;7.72;;;;;;;7.81;100.00;100760.22;10473749;28;20144;-60
2023/12/09 09:34:14;;;;;;;25.10;7.82;;;;;;;7.81;100.00;100744.75;10496120;28;20636;-60
2023/12/09 09:39:35;;;;;;;23.23;7.18;;;;;;;7.82;100.00;100743.91;10474961;28;20412;-61
2023/12/09 09:45:26;;;;;;;23.02;7.63;;;;;;;7.82;100.00;100731.84;10477852;28;20127;-60
2023/12/09 09:50:52;;;;;;;;;;;;;;;7.83;100.00;100712.97;10488445;28;20048;-60
2023/12/09 09:56:14;;;;;;;20.73;6.82;;;;;;;7.85;100.00;100726.66;10479564;28;19931;-61
2023/12/09 10:01:37;;;;;;;25.30;7.28;;;;;;;7.84;100.00;100714.66;10472420;28;20064;-58
2023/12/09 10:06:59;;;;;;;25.38;5.80;;;;;;;7.85;100.00;100695.75;10476380;28;20665;-58
2023/12/09 10:12:21;;;;;;;26.70;6.55;;;;;;;7.91;100.00;100684.47;10482253;28;20109;-60
2023/12/09 10:17:43;;;;;;;21.88;5.70;;;;;;;7.94;100.00;100671.50;10478698;28;20037;-60
2023/12/09 10:23:07;;;;;;;27.20;6.05;;;;;;;7.92;100.00;100652.66;10477108;28;20072;-60
2023/12/09 10:28:31;;;;;;;15.48;5.13;;;;;;;7.89;100.00;100639.88;10475413;28;20136;-60
2023/12/09 10:33:52;;;;;;;26.15;4.80;;;;;;;7.89;100.00;100619.25;10479751;28;20143;-61
2023/12/09 10:39:14;;;;;;;16.75;4.55;;;;;;;7.87;100.00;100606.38;10482620;28;20049;-60
2023/12/09 10:44:36;;;;;;;18.92;5.22;;;;;;;7.87;100.00;100590.09;10461517;28;20076;-60
2023/12/09 10:49:58;;;;;;;14.30;4.65;;;;;;;7.89;100.00;100578.03;10488758;28;20053;-60
2023/12/09 10:55:19;;;;;;;13.40;4.30;;;;;;;7.88;100.00;100573.75;10472875;28;20135;-60
2023/12/09 11:00:42;;;;;;;14.90;3.97;;;;;;;7.87;100.00;100556.63;10468072;28;20501;-60
2023/12/09 11:06:06;;;;;;;17.13;3.67;;;;;;;7.91;100.00;100535.88;10471401;28;20044;-60
2023/12/09 11:11:29;;;;;;;12.00;4.50;;;;;;;7.91;100.00;100506.72;10464748;28;20063;-61
2023/12/09 11:16:50;;;;;;;15.15;4.32;;;;;;;7.89;100.00;100501.59;10469702;28;20048;-61
2023/12/09 11:22:13;;;;;;;14.13;4.13;;;;;;;7.91;100.00;100478.41;10470973;28;20070;-60
2023/12/09 11:27:36;;;;;;;12.30;4.88;;;;;;;7.95;100.00;100470.53;10477458;28;20551;-59
2023/12/09 11:32:58;;;;;;;12.60;4.38;;;;;;;7.96;100.00;100466.22;10469755;28;20124;-60
2023/12/09 11:38:21;;;;;;;12.70;4.00;;;;;;;7.99;100.00;100450.69;10480528;28;20048;-60
2023/12/09 11:43:43;;;;;;;11.48;4.10;;;;;;;7.99;100.00;100435.22;10474988;28;20551;-60
2023/12/09 11:49:06;;;;;;;12.35;3.47;;;;;;;7.94;100.00;100437.09;10470851;28;20154;-60
2023/12/09 11:54:28;;;;;;;10.60;3.65;;;;;;;7.91;100.00;100414.81;10475539;28;20041;-61
2023/12/09 11:59:51;;;;;;;15.50;3.85;;;;;;;7.93;100.00;100399.31;10472930;28;20063;-61
2023/12/09 12:05:13;;;;;;;16.42;3.88;;;;;;;7.93;100.00;100397.59;10470481;28;20051;-60
2023/12/09 12:10:34;;;;;;;13.07;3.85;;;;;;;7.96;100.00;100369.19;10472480;28;20400;-60
2023/12/09 12:15:59;;;;;;;8.80;3.40;;;;;;;8.02;100.00;100373.34;10471137;28;20048;-61
2023/12/09 12:21:21;;;;;;;13.25;3.55;;;;;;;8.08;100.00;100373.16;10472339;28;20063;-60
2023/12/09 12:26:43;;;;;;;9.57;3.50;;;;;;;8.13;100.00;100355.81;10472273;28;20056;-60
2023/12/09 12:32:14;;;;;;;13.75;4.05;;;;;;;8.16;100.00;100340.31;10459471;28;20068;-60
2023/12/09 12:37:36;;;;;;;14.23;3.42;;;;;;;8.20;100.00;100336.75;10464611;28;20059;-61
2023/12/09 12:43:03;;;;;;;13.20;3.40;;;;;;;8.20;100.00;100310.13;10467841;28;20143;-61
2023/12/09 12:48:25;;;;;;;7.80;2.95;;;;;;;8.23;100.00;100300.56;10471963;28;20053;-60
2023/12/09 12:53:47;;;;;;;9.15;3.35;;;;;;;8.26;100.00;100297.94;10472408;28;20566;-60
2023/12/09 12:59:08;;;;;;;11.60;3.70;;;;;;;8.27;100.00;100291.91;10473629;28;20503;-59
2023/12/09 13:04:30;;;;;;;12.85;3.35;;;;;;;8.23;100.00;100269.66;10469454;28;20053;-59
2023/12/09 13:09:52;;;;;;;7.03;3.00;;;;;;;8.22;100.00;100255.09;10469936;28;20504;-59
2023/12/09 13:15:14;;;;;;;9.82;2.95;;;;;;;8.19;100.00;100229.41;10465586;28;20536;-59
2023/12/09 13:20:35;;;;;;;10.77;3.60;;;;;;;8.14;100.00;100213.25;10484554;28;20052;-59
2023/12/09 13:25:58;;;;;;;9.68;3.17;;;;;;;8.09;100.00;100204.81;10471041;28;20047;-59
2023/12/09 13:31:20;;;;;;;9.10;3.42;;;;;;;8.02;100.00;100182.69;10470404;28;20141;-59
2023/12/09 13:36:44;;;;;;;11.73;3.00;;;;;;;7.99;100.00;100168.16;10471955;28;20044;-59
2023/12/09 13:42:05;;;;;;;10.80;3.30;;;;;;;7.97;100.00;100153.63;10470521;28;20059;-60
2023/12/09 13:47:27;;;;;;;9.93;3.30;;;;;;;7.94;100.00;100144.28;10469215;28;20111;-59
2023/12/09 13:52:49;;;;;;;14.00;3.15;;;;;;;7.95;100.00;100127.06;10463999;28;20670;-59
2023/12/09 13:58:10;;;;;;;8.52;2.92;;;;;;;7.93;100.00;100115.97;10471915;28;20148;-59
2023/12/09 14:03:32;;;;;;;7.20;2.78;;;;;;;7.91;100.00;100092.03;10464182;28;20147;-59
2023/12/09 14:08:54;;;;;;;7.65;2.90;;;;;;;7.94;100.00;100089.34;10464574;28;20056;-59
2023/12/09 14:14:15;;;;;;;14.05;3.53;;;;;;;7.91;100.00;100076.56;10465505;28;20048;-59
2023/12/09 14:19:37;;;;;;;10.35;2.88;;;;;;;7.84;100.00;100064.75;10475707;28;20059;-59
2023/12/09 14:25:00;;;;;;;9.70;2.92;;;;;;;7.83;100.00;100052.78;10475084;28;20135;-59
2023/12/09 14:30:21;;;;;;;6.45;2.75;;;;;;;7.84;100.00;100032.13;10475477;28;20066;-60
2023/12/09 14:35:43;;;;;;;11.15;2.92;;;;;;;7.84;100.00;100023.53;10481321;28;20065;-60
2023/12/09 14:41:05;;;;;;;10.73;3.13;;;;;;;7.80;100.00;100006.53;10474118;28;20110;-59
2023/12/09 14:46:26;;;;;;;12.02;3.88;;;;;;;7.77;100.00;99993.75;10491122;28;20047;-60
2023/12/09 14:51:48;;;;;;;12.48;3.67;;;;;;;7.72;100.00;99977.59;10472201;28;20140;-59
2023/12/09 14:57:10;;;;;;;8.57;3.38;;;;;;;7.73;100.00;99963.81;10473562;28;20115;-60
2023/12/09 15:02:32;;;;;;;8.63;2.70;;;;;;;7.73;100.00;99950.94;10464262;28;20143;-59
2023/12/09 15:07:53;;;;;;;8.80;2.55;;;;;;;7.76;100.00;99932.84;10479639;28;20045;-60
2023/12/09 15:13:15;;;;;;;9.55;3.00;;;;;;;7.69;100.00;99926.22;10469780;28;20051;-60
2023/12/09 15:18:38;;;;;;;11.80;2.80;;;;;;;7.66;100.00;99901.41;10480589;28;20496;-59
2023/12/09 15:24:00;;;;;;;5.65;2.67;;;;;;;7.66;100.00;99879.97;10480321;28;20090;-60
2023/12/09 15:29:22;;;;;;;10.77;2.75;;;;;;;7.60;100.00;99859.59;10470621;28;20048;-60
2023/12/09 15:34:44;;;;;;;6.75;3.15;;;;;;;7.63;100.00;99833.75;10472138;28;20044;-60
2023/12/09 15:40:08;;;;;;;9.60;2.90;;;;;;;7.57;100.00;99814.19;10470302;28;20728;-60
2023/12/09 15:45:30;;;;;;;11.02;3.17;;;;;;;7.56;100.00;99798.81;10468541;28;20072;-60
2023/12/09 15:50:52;;;;;;;7.15;3.47;;;;;;;7.56;100.00;99775.66;10476451;28;20053;-59
2023/12/09 15:56:14;;;;;;;14.65;3.40;;;;;;;7.50;100.00;99747.53;10470709;28;20053;-60
2023/12/09 16:01:36;;;;;;;11.85;3.63;;;;;;;7.43;100.00;99728.06;10472132;28;20044;-60
2023/12/09 16:06:57;;;;;;;11.07;4.10;;;;;;;7.41;100.00;99715.25;10477170;28;20051;-60
2023/12/09 16:12:20;;;;;;;11.82;4.20;;;;;;;7.37;100.00;99698.25;10473523;28;20538;-59
2023/12/09 16:17:42;;;;;;;10.25;3.90;;;;;;;7.40;100.00;99697.31;10475915;28;20136;-59
2023/12/09 16:23:04;;;;;;;12.50;4.00;;;;;;;7.41;100.00;99678.38;10475912;28;20054;-59
2023/12/09 16:28:26;;;;;;;11.15;3.80;;;;;;;7.37;100.00;99663.94;10473090;28;20060;-60
2023/12/09 16:33:50;;;;;;;13.57;4.30;;;;;;;7.38;100.00;99634.75;10472014;28;20560;-60
2023/12/09 16:39:16;;;;;;;14.50;4.45;;;;;;;7.33;100.00;99634.91;10477528;28;23810;-60
2023/12/09 16:44:37;;;;;;;17.42;5.90;;;;;;;7.29;100.00;99622.22;10473428;28;20056;-60
2023/12/09 16:50:00;;;;;;;19.10;5.65;;;;;;;7.33;100.00;99613.47;10473309;28;20102;-60
2023/12/09 16:55:22;;;;;;;20.10;5.63;;;;;;;7.31;100.00;99599.84;10477956;28;20041;-58
2023/12/09 17:00:44;;;;;;;17.20;5.82;;;;;;;7.31;100.00;99584.41;10473194;28;20059;-58
2023/12/09 17:06:06;;;;;;;14.68;5.00;;;;;;;7.31;100.00;99574.94;10459605;28;20061;-58
2023/12/09 17:11:28;;;;;;;13.10;5.25;;;;;;;7.29;100.00;99575.91;10464876;28;20064;-60
2023/12/09 17:16:49;;;;;;;12.93;4.63;;;;;;;7.32;100.00;99566.34;10467962;28;20066;-61
2023/12/09 17:22:11;;;;;;;14.70;5.35;;;;;;;7.29;100.00;99563.06;10475455;28;20408;-60
2023/12/09 17:27:33;;;;;;;12.48;5.10;;;;;;;7.27;100.00;99545.06;10469518;28;20532;-60
2023/12/09 17:32:55;;;;;;;11.18;4.65;;;;;;;7.27;100.00;99528.81;10474951;28;20063;-60
2023/12/09 17:38:17;;;;;;;9.98;4.60;;;;;;;7.22;100.00;99505.84;10472381;28;20049;-60
2023/12/09 17:43:39;;;;;;;10.68;4.30;;;;;;;7.23;100.00;99483.53;10469412;28;20049;-60
2023/12/09 17:49:00;;;;;;;15.43;5.00;;;;;;;7.22;100.00;99471.53;10475218;28;20048;-61
2023/12/09 17:54:22;;;;;;;14.90;5.10;;;;;;;7.18;100.00;99454.59;10472345;28;20071;-61
2023/12/09 17:59:44;;;;;;;11.77;5.07;;;;;;;7.16;100.00;99417.78;10481498;28;20109;-61
2023/12/09 18:05:06;;;;;;;17.75;6.05;;;;;;;7.18;100.00;99393.66;10487507;28;20033;-58
2023/12/09 18:10:28;;;;;;;12.23;6.43;;;;;;;7.20;100.00;99357.63;10478935;28;20049;-61
2023/12/09 18:15:50;;;;;;;21.00;6.32;;;;;;;7.18;100.00;99362.81;10476213;28;20044;-61
2023/12/09 18:21:12;;;;;;;17.30;5.80;;;;;;;7.21;100.00;99359.28;10485913;28;20051;-61
2023/12/09 18:26:34;;;;;;;18.13;5.63;;;;;;;7.21;100.00;99360.13;10476288;28;20049;-61
2023/12/09 18:31:55;;;;;;;15.13;6.68;;;;;;;7.22;100.00;99327.50;10481747;28;20432;-61
2023/12/09 18:37:18;;;;;;;16.08;6.55;;;;;;;7.24;100.00;99328.28;10475461;28;20037;-61
2023/12/09 18:42:40;;;;;;;14.55;6.25;;;;;;;7.23;100.00;99298.31;10473795;28;20408;-61
2023/12/09 18:48:01;;;;;;;15.18;6.30;;;;;;;7.22;100.00;99294.91;10486407;28;20079;-61
2023/12/09 18:53:23;;;;;;;18.45;5.78;;;;;;;7.21;100.00;99274.41;10468945;28;20056;-61
2023/12/09 18:58:45;;;;;;;11.60;5.07;;;;;;;7.23;100.00;99277.75;10468131;28;20037;-61
2023/12/09 19:04:07;;;;;;;15.35;5.22;;;;;;;7.25;100.00;99270.81;10478580;28;20047;-61
2023/12/09 19:09:29;;;;;;;11.32;4.45;;;;;;;7.25;100.00;99245.09;10468992;28;20044;-61
2023/12/09 19:14:51;;;;;;;9.43;4.30;;;;;;;7.22;100.00;99230.59;10475012;28;20136;-61
2023/12/09 19:20:13;;;;;;;12.32;4.40;;;;;;;7.25;100.00;99232.22;10476510;28;20045;-60
2023/12/09 19:25:35;;;;;;;10.52;4.13;;;;;;;7.25;100.00;99229.66;10477781;28;20428;-60
2023/12/09 19:30:56;;;;;;;7.72;3.47;;;;;;;7.22;100.00;99219.47;10481760;28;20052;-61
2023/12/09 19:36:18;;;;;;;10.05;4.10;;;;;;;7.20;100.00;99205.88;10480350;28;20049;-60
2023/12/09 19:41:40;;;;;;;5.68;4.22;;;;;;;7.22;100.00;99219.47;10476369;28;20059;-61
2023/12/09 19:47:02;;;;;;;7.70;3.70;;;;;;;7.22;100.00;99228.03;10477379;28;20098;-61
2023/12/09 19:52:23;;;;;;;8.20;3.50;;;;;;;7.21;100.00;99213.50;10473464;28;20134;-60
2023/12/09 19:57:45;;;;;;;11.55;4.10;;;;;;;7.23;100.00;99210.88;10460957;28;20155;-60
2023/12/09 20:03:07;;;;;;;10.55;4.55;;;;;;;7.22;100.00;99214.31;10471794;28;20052;-60
2023/12/09 20:08:29;;;;;;;10.95;4.00;;;;;;;7.23;100.00;99210.88;10468415;28;20053;-60
2023/12/09 20:13:50;;;;;;;14.45;5.25;;;;;;;7.24;100.00;99212.53;10470613;28;20051;-61
2023/12/09 20:19:12;;;;;;;18.85;4.45;;;;;;;7.24;100.00;99204.81;10471935;28;20044;-61
2023/12/09 20:24:35;;;;;;;6.53;3.13;;;;;;;7.21;100.00;99181.81;10480790;28;20172;-60
2023/12/09 20:29:56;;;;;;;6.78;3.28;;;;;;;7.26;100.00;99165.28;10473746;28;20084;-60
2023/12/09 20:35:18;;;;;;;5.93;3.50;;;;;;;7.25;100.00;99152.47;10472704;28;20056;-60
2023/12/09 20:40:39;;;;;;;6.43;3.58;;;;;;;7.24;100.00;99146.50;10484587;28;20518;-60
2023/12/09 20:46:01;;;;;;;5.60;3.10;;;;;;;7.26;100.00;99180.69;10476199;28;20036;-60
2023/12/09 20:51:24;;;;;;;3.92;2.85;;;;;;;7.30;100.00;99176.25;10473585;28;20045;-60
2023/12/09 20:56:46;;;;;;;4.00;2.83;;;;;;;7.29;100.00;99164.31;10469102;28;20097;-60
2023/12/09 21:02:08;;;;;;;3.75;3.08;;;;;;;7.32;100.00;99164.16;10469131;28;20052;-60
2023/12/09 21:07:31;;;;;;;4.85;3.13;;;;;;;7.34;100.00;99162.38;10494736;28;20041;-60
2023/12/09 21:12:56;;;;;;;5.05;3.40;;;;;;;7.32;100.00;99153.88;10471425;28;20537;-61
2023/12/09 21:18:19;;;;;;;5.50;3.40;;;;;;;7.34;100.00;99147.78;10469136;28;20397;-61
2023/12/09 21:23:41;;;;;;;4.82;3.30;;;;;;;7.35;100.00;99161.44;10481020;28;20044;-61
2023/12/09 21:29:03;;;;;;;5.55;3.58;;;;;;;7.37;100.00;99169.94;10506216;28;20036;-61
2023/12/09 21:34:24;;;;;;;5.50;3.70;;;;;;;7.38;100.00;99163.91;10476480;28;20527;-62
2023/12/09 21:39:46;;;;;;;12.70;4.50;;;;;;;7.39;100.00;99199.00;10483536;28;20146;-61
2023/12/09 21:45:10;;;;;;;5.30;4.55;;;;;;;7.38;100.00;99195.59;10500863;28;20048;-61
2023/12/09 21:50:36;;;;;;;5.75;4.85;;;;;;;7.39;100.00;99201.59;10485032;28;20056;-61
2023/12/09 21:55:58;;;;;;;5.78;4.60;;;;;;;7.43;100.00;99203.97;10484766;28;20052;-61
2023/12/09 22:01:20;;;;;;;4.80;4.30;;;;;;;7.46;100.00;99195.25;10485727;28;20106;-62
2023/12/09 22:06:42;;;;;;;5.18;4.13;;;;;;;7.49;100.00;99198.53;10487053;28;20044;-61
2023/12/09 22:12:05;;;;;;;5.22;4.72;;;;;;;7.52;100.00;99202.72;10490640;28;20101;-61
2023/12/09 22:17:27;;;;;;;6.35;4.93;;;;;;;7.54;100.00;99206.06;10486019;28;20523;-61
2023/12/09 22:22:49;;;;;;;6.20;5.18;;;;;;;7.56;100.00;99219.72;10485105;28;20056;-61
2023/12/09 22:28:16;;;;;;;9.27;5.30;;;;;;;7.59;100.00;99235.00;10483477;28;20538;-61
2023/12/09 22:33:39;;;;;;;7.15;5.93;;;;;;;7.68;100.00;99224.31;10482774;28;20061;-61
2023/12/09 22:39:03;;;;;;;9.73;6.57;;;;;;;7.76;100.00;99238.53;10481859;28;20657;-61
2023/12/09 22:44:24;;;;;;;12.82;7.40;;;;;;;7.87;100.00;99248.34;10484939;28;20723;-61
2023/12/09 22:49:46;;;;;;;15.55;7.60;;;;;;;7.93;100.00;99263.50;10479126;28;20156;-60
2023/12/09 22:55:08;;;;;;;18.27;7.10;;;;;;;8.00;100.00;99272.66;10464953;28;20061;-61
2023/12/09 23:00:33;;;;;;;19.42;7.45;;;;;;;8.06;100.00;99280.09;10478194;28;20056;-61
2023/12/09 23:05:55;;;;;;;27.60;6.82;;;;;;;8.12;100.00;99283.22;10472292;28;20047;-62
2023/12/09 23:11:16;;;;;;;19.42;6.70;;;;;;;8.20;100.00;99288.06;10480514;28;20060;-62
2023/12/09 23:16:38;;;;;;;24.25;6.07;;;;;;;8.26;100.00;99300.66;10466999;28;20044;-61
2023/12/09 23:22:00;;;;;;;18.23;4.88;;;;;;;8.37;100.00;99306.16;10471423;28;20059;-61
2023/12/09 23:27:21;;;;;;;26.67;4.80;;;;;;;8.49;100.00;99328.81;10487452;28;20040;-61
2023/12/09 23:32:43;;;;;;;27.60;4.40;;;;;;;8.57;100.00;99324.13;10479900;28;20052;-61
2023/12/09 23:38:08;;;;;;;30.48;4.40;;;;;;;8.67;100.00;99338.28;10473295;28;20527;-61
2023/12/09 23:43:30;;;;;;;25.60;4.17;;;;;;;8.79;100.00;99348.00;10476576;28;20044;-61
2023/12/09 23:48:52;;;;;;;32.20;4.05;;;;;;;8.93;100.00;99349.97;10468928;28;20136;-61
2023/12/09 23:54:13;;;;;;;37.78;4.47;;;;;;;8.95;100.00;99359.28;10472963;28;20080;-61
2023/12/09 23:59:35;;;;;;;32.17;4.38;;;;;;;9.03;100.00;99367.50;10483697;28;20041;-61
